createdAt,value
2023-03-24T00:00:03.702Z,99284.05
2023-03-24T00:01:09.011Z,99290.27
2023-03-24T00:02:12.955Z,99293.33
2023-03-24T00:03:18.289Z,99281.98
2023-03-24T00:04:21.167Z,99276.84
2023-03-24T00:05:23.779Z,99284.75
2023-03-24T00:06:26.577Z,99277.70
2023-03-24T00:07:30.517Z,99285.51
2023-03-24T00:08:36.969Z,99290.81
2023-03-24T00:09:42.181Z,99279.73
2023-03-24T00:10:47.090Z,99289.29
2023-03-24T00:11:49.595Z,99279.22
2023-03-24T00:12:51.840Z,99287.03
2023-03-24T00:13:56.554Z,99280.91
2023-03-24T00:15:01.010Z,99278.97
2023-03-24T00:16:08.571Z,99275.50
2023-03-24T00:17:15.840Z,99277.19
2023-03-24T00:18:21.112Z,99270.30
2023-03-24T00:19:24.433Z,99281.57
2023-03-24T00:20:28.417Z,99282.59
2023-03-24T00:21:31.971Z,99272.33
2023-03-24T00:22:36.235Z,99252.70
2023-03-24T00:23:40.843Z,99252.70
2023-03-24T00:24:48.169Z,99267.47
2023-03-24T00:26:03.235Z,99258.73
2023-03-24T00:27:05.732Z,99255.02
2023-03-24T00:28:10.094Z,99251.49
2023-03-24T00:29:13.266Z,99268.80
2023-03-24T00:30:18.129Z,99274.20
2023-03-24T00:31:20.493Z,99257.05
2023-03-24T00:32:23.614Z,99272.10
2023-03-24T00:33:26.052Z,99273.02
2023-03-24T00:34:28.315Z,99270.00
2023-03-24T00:35:30.914Z,99275.55
2023-03-24T00:36:33.878Z,99282.44
2023-03-24T00:37:38.838Z,99272.94
2023-03-24T00:38:41.423Z,99279.16
2023-03-24T00:39:43.976Z,99279.16
2023-03-24T00:40:48.160Z,99270.52
2023-03-24T00:41:50.888Z,99273.80
2023-03-24T00:42:54.448Z,99271.77
2023-03-24T00:43:59.670Z,99264.78
2023-03-24T00:45:04.574Z,99268.31
2023-03-24T00:46:10.579Z,99270.34
2023-03-24T00:47:13.617Z,99268.84
2023-03-24T00:48:17.785Z,99263.78
2023-03-24T00:49:22.466Z,99252.97
2023-03-24T00:50:27.483Z,99251.04
2023-03-24T00:51:36.863Z,99256.16
2023-03-24T00:52:41.120Z,99254.37
2023-03-24T00:53:43.596Z,99250.18
2023-03-24T00:54:49.231Z,99240.69
2023-03-24T00:55:51.895Z,99244.49
2023-03-24T00:56:56.330Z,99244.30
2023-03-24T00:58:00.501Z,99244.30
2023-03-24T00:59:03.817Z,99246.14
2023-03-24T01:00:12.981Z,99240.27
2023-03-24T01:01:15.451Z,99232.20
2023-03-24T01:02:24.121Z,99243.48
2023-03-24T01:03:27.006Z,99239.59
2023-03-24T01:04:30.080Z,99245.14
2023-03-24T01:05:33.330Z,99239.94
2023-03-24T01:06:36.865Z,99232.89
2023-03-24T01:07:40.980Z,99241.28
2023-03-24T01:08:44.494Z,99236.42
2023-03-24T01:09:50.286Z,99231.40
2023-03-24T01:10:53.884Z,99237.27
2023-03-24T01:11:56.841Z,99239.78
2023-03-24T01:13:00.350Z,99234.73
2023-03-24T01:14:04.628Z,99238.44
2023-03-24T01:15:11.340Z,99227.27
2023-03-24T01:16:14.624Z,99243.64
2023-03-24T01:17:18.771Z,99238.44
2023-03-24T01:18:23.709Z,99239.45
2023-03-24T01:19:26.587Z,99242.88
2023-03-24T01:20:32.405Z,99241.13
2023-03-24T01:21:36.377Z,99235.93
2023-03-24T01:22:42.882Z,99240.28
2023-03-24T01:23:45.232Z,99228.80
2023-03-24T01:24:49.133Z,99231.55
2023-03-24T01:25:53.527Z,99231.55
2023-03-24T01:26:56.875Z,99231.45
2023-03-24T01:27:59.610Z,99227.11
2023-03-24T01:29:03.048Z,99237.09
2023-03-24T01:30:07.350Z,99233.58
2023-03-24T01:31:10.446Z,99220.47
2023-03-24T01:32:12.942Z,99221.14
2023-03-24T01:33:15.849Z,99233.08
2023-03-24T01:34:18.265Z,99236.51
2023-03-24T01:35:22.689Z,99229.88
2023-03-24T01:36:25.008Z,99235.26
2023-03-24T01:37:27.265Z,99244.56
2023-03-24T01:38:29.858Z,99235.26
2023-03-24T01:39:32.209Z,99241.20
2023-03-24T01:40:37.145Z,99233.48
2023-03-24T01:41:41.891Z,99222.98
2023-03-24T01:42:44.867Z,99225.42
2023-03-24T01:43:48.391Z,99231.13
2023-03-24T01:44:53.914Z,99223.31
2023-03-24T01:46:02.829Z,99229.29
2023-03-24T01:47:08.496Z,99218.05
2023-03-24T01:48:17.420Z,99222.98
2023-03-24T01:49:21.135Z,99228.19
2023-03-24T01:50:24.144Z,99224.09
2023-03-24T01:51:35.812Z,99230.05
2023-03-24T01:52:39.562Z,99224.51
2023-03-24T01:53:51.409Z,99220.98
2023-03-24T01:55:00.144Z,99223.84
2023-03-24T01:56:05.114Z,99230.12
2023-03-24T01:57:15.818Z,99226.11
2023-03-24T01:58:20.160Z,99219.12
2023-03-24T01:59:28.189Z,99228.86
2023-03-24T02:00:37.129Z,99218.97
2023-03-24T02:01:46.278Z,99218.45
2023-03-24T02:03:06.196Z,99218.45
2023-03-24T02:04:11.536Z,99225.67
2023-03-24T02:05:15.562Z,99214.50
2023-03-24T02:06:21.940Z,99220.47
2023-03-24T02:07:39.568Z,99214.45
2023-03-24T02:08:54.460Z,99220.47
2023-03-24T02:09:58.412Z,99211.75
2023-03-24T02:11:01.942Z,99231.46
2023-03-24T02:12:06.954Z,99226.44
2023-03-24T02:13:10.766Z,99234.31
2023-03-24T02:14:14.626Z,99251.55
2023-03-24T02:15:19.153Z,99237.58
2023-03-24T02:16:34.261Z,99239.60
2023-03-24T02:18:02.373Z,99240.70
2023-03-24T02:19:26.515Z,99241.62
2023-03-24T02:20:32.714Z,99241.44
2023-03-24T02:21:53.577Z,99242.45
2023-03-24T02:23:07.323Z,99235.66
2023-03-24T02:24:33.299Z,99236.56
2023-03-24T02:25:58.155Z,99248.66
2023-03-24T02:27:19.530Z,99243.21
2023-03-24T02:28:31.600Z,99242.30
2023-03-24T02:29:54.088Z,99245.91
2023-03-24T02:31:35.596Z,99238.25
2023-03-24T02:32:58.521Z,99243.30
2023-03-24T02:34:19.518Z,99244.13
2023-03-24T02:35:32.660Z,99242.11
2023-03-24T02:36:58.938Z,99237.19
2023-03-24T02:38:29.390Z,99241.44
2023-03-24T02:39:53.672Z,99239.60
2023-03-24T02:41:05.959Z,99238.59
2023-03-24T02:42:24.077Z,99239.45
2023-03-24T02:43:40.477Z,99236.08
2023-03-24T02:44:58.460Z,99237.77
2023-03-24T02:46:24.495Z,99233.63
2023-03-24T02:47:33.973Z,99238.10
2023-03-24T02:48:42.941Z,99240.12
2023-03-24T02:49:48.858Z,99236.89
2023-03-24T02:50:57.997Z,99241.03
2023-03-24T02:52:06.840Z,99242.62
2023-03-24T02:53:23.283Z,99241.62
2023-03-24T02:54:47.776Z,99236.42
2023-03-24T02:56:09.227Z,99242.10
2023-03-24T02:57:21.247Z,99245.80
2023-03-24T02:58:55.455Z,99248.22
2023-03-24T03:00:17.703Z,99254.37
2023-03-24T03:01:35.799Z,99257.70
2023-03-24T03:02:51.080Z,99261.40
2023-03-24T03:03:57.173Z,99260.48
2023-03-24T03:05:06.731Z,99259.48
2023-03-24T03:06:22.438Z,99261.16
2023-03-24T03:07:26.757Z,99262.23
2023-03-24T03:08:33.360Z,99255.84
2023-03-24T03:09:39.359Z,99255.84
2023-03-24T03:10:45.891Z,99261.73
2023-03-24T03:11:52.019Z,99258.36
2023-03-24T03:12:58.442Z,99263.56
2023-03-24T03:14:04.347Z,99261.87
2023-03-24T03:15:11.308Z,99259.86
2023-03-24T03:16:17.858Z,99264.92
2023-03-24T03:17:28.539Z,99270.95
2023-03-24T03:18:40.368Z,99266.75
2023-03-24T03:19:46.535Z,99257.80
2023-03-24T03:20:52.627Z,99255.72
2023-03-24T03:21:58.290Z,99256.31
2023-03-24T03:23:05.024Z,99249.75
2023-03-24T03:24:10.937Z,99254.04
2023-03-24T03:25:17.812Z,99257.56
2023-03-24T03:26:27.955Z,99251.59
2023-03-24T03:27:35.622Z,99256.70
2023-03-24T03:28:43.024Z,99254.04
2023-03-24T03:29:49.526Z,99258.38
2023-03-24T03:30:58.848Z,99255.63
2023-03-24T03:32:10.523Z,99263.77
2023-03-24T03:33:17.646Z,99264.77
2023-03-24T03:34:35.759Z,99261.22
2023-03-24T03:35:54.177Z,99255.88
2023-03-24T03:37:09.203Z,99260.06
2023-03-24T03:38:35.445Z,99266.12
2023-03-24T03:39:44.168Z,99260.84
2023-03-24T03:40:58.766Z,99259.06
2023-03-24T03:42:06.016Z,99260.59
2023-03-24T03:43:09.411Z,99260.59
2023-03-24T03:44:14.154Z,99270.81
2023-03-24T03:45:17.991Z,99262.92
2023-03-24T03:46:20.643Z,99265.47
2023-03-24T03:47:23.837Z,99261.27
2023-03-24T03:48:28.705Z,99261.27
2023-03-24T03:49:31.895Z,99263.60
2023-03-24T03:50:35.340Z,99258.34
2023-03-24T03:51:40.245Z,99259.93
2023-03-24T03:52:44.070Z,99265.13
2023-03-24T03:53:50.207Z,99272.17
2023-03-24T03:54:55.448Z,99279.06
2023-03-24T03:55:58.061Z,99274.77
2023-03-24T03:57:01.892Z,99274.63
2023-03-24T03:58:18.906Z,99272.02
2023-03-24T03:59:29.167Z,99278.23
2023-03-24T04:00:33.099Z,99282.58
2023-03-24T04:01:49.479Z,99280.90
2023-03-24T04:03:05.310Z,99283.34
2023-03-24T04:04:21.173Z,99285.03
2023-03-24T04:07:33.268Z,99280.08
2023-03-24T04:08:47.399Z,99284.08
2023-03-24T04:10:04.823Z,99287.45
2023-03-24T04:11:19.675Z,99284.76
2023-03-24T04:14:21.664Z,99289.23
2023-03-24T04:15:51.123Z,99282.83
2023-03-24T04:17:14.754Z,99283.94
2023-03-24T04:18:23.808Z,99283.94
2023-03-24T04:19:43.417Z,99286.69
2023-03-24T04:21:05.732Z,99287.63
2023-03-24T04:22:23.610Z,99289.62
2023-03-24T04:23:39.306Z,99288.64
2023-03-24T04:25:09.337Z,99286.69
2023-03-24T04:26:39.152Z,99281.48
2023-03-24T04:27:45.817Z,99297.86
2023-03-24T04:28:56.976Z,99297.86
2023-03-24T04:30:18.149Z,99299.55
2023-03-24T04:31:33.557Z,99301.23
2023-03-24T04:33:01.845Z,99306.44
2023-03-24T04:34:15.056Z,99303.06
2023-03-24T04:35:26.299Z,99307.35
2023-03-24T04:38:02.959Z,99302.41
2023-03-24T04:39:06.576Z,99305.58
2023-03-24T04:40:16.757Z,99302.91
2023-03-24T04:41:25.452Z,99306.25
2023-03-24T04:42:48.157Z,99311.45
2023-03-24T04:43:52.348Z,99311.22
2023-03-24T04:44:57.118Z,99306.10
2023-03-24T04:46:04.651Z,99308.61
2023-03-24T04:47:16.805Z,99309.47
2023-03-24T04:48:21.062Z,99308.47
2023-03-24T04:49:28.425Z,99315.36
2023-03-24T04:50:33.721Z,99312.81
2023-03-24T04:51:36.685Z,99323.22
2023-03-24T04:52:42.909Z,99320.62
2023-03-24T04:53:46.616Z,99318.97
2023-03-24T04:54:51.705Z,99322.48
2023-03-24T04:56:02.564Z,99324.32
2023-03-24T04:57:21.699Z,99317.43
2023-03-24T04:59:35.970Z,99334.65
2023-03-24T05:00:40.972Z,99333.81
2023-03-24T05:01:46.014Z,99344.04
2023-03-24T05:04:18.251Z,99341.39
2023-03-24T05:05:21.908Z,99341.44
2023-03-24T05:06:25.728Z,99349.25
2023-03-24T05:07:28.064Z,99338.84
2023-03-24T05:08:32.951Z,99346.83
2023-03-24T05:09:36.437Z,99333.62
2023-03-24T05:10:39.029Z,99343.30
2023-03-24T05:11:42.237Z,99338.16
2023-03-24T05:12:44.700Z,99340.08
2023-03-24T05:13:49.077Z,99337.48
2023-03-24T05:14:51.430Z,99335.64
2023-03-24T05:15:54.174Z,99333.62
2023-03-24T05:17:02.493Z,99343.89
2023-03-24T05:18:06.275Z,99334.06
2023-03-24T05:19:09.251Z,99329.78
2023-03-24T05:20:12.268Z,99336.52
2023-03-24T05:21:17.021Z,99334.65
2023-03-24T05:22:19.348Z,99331.13
2023-03-24T05:23:21.509Z,99325.77
2023-03-24T05:24:25.415Z,99325.59
2023-03-24T05:25:28.497Z,99328.19
2023-03-24T05:26:33.182Z,99325.59
2023-03-24T05:27:37.630Z,99332.48
2023-03-24T05:28:42.090Z,99328.28
2023-03-24T05:29:46.462Z,99320.05
2023-03-24T05:30:50.934Z,99324.57
2023-03-24T05:31:55.731Z,99319.37
2023-03-24T05:32:59.013Z,99331.47
2023-03-24T05:34:01.456Z,99331.70
2023-03-24T05:35:06.196Z,99334.83
2023-03-24T05:36:10.516Z,99332.81
2023-03-24T05:37:17.759Z,99334.65
2023-03-24T05:38:22.223Z,99344.23
2023-03-24T05:39:27.787Z,99337.59
2023-03-24T05:40:32.122Z,99336.52
2023-03-24T05:41:39.860Z,99343.91
2023-03-24T05:42:42.541Z,99337.69
2023-03-24T05:43:46.142Z,99340.88
2023-03-24T05:44:50.224Z,99354.32
2023-03-24T05:45:56.108Z,99359.71
2023-03-24T05:47:01.498Z,99371.81
2023-03-24T05:48:03.988Z,99363.57
2023-03-24T05:49:08.217Z,99366.56
2023-03-24T05:50:13.605Z,99365.89
2023-03-24T05:51:16.605Z,99364.38
2023-03-24T05:52:23.015Z,99355.33
2023-03-24T05:53:27.077Z,99351.63
2023-03-24T05:54:33.814Z,99344.24
2023-03-24T05:55:41.136Z,99343.32
2023-03-24T05:56:45.496Z,99342.22
2023-03-24T05:57:51.242Z,99335.59
2023-03-24T05:58:55.433Z,99346.25
2023-03-24T05:59:58.571Z,99348.16
2023-03-24T06:01:19.426Z,99350.45
2023-03-24T06:02:24.519Z,99345.97
2023-03-24T06:03:31.419Z,99343.20
2023-03-24T06:04:36.283Z,99346.23
2023-03-24T06:05:42.066Z,99339.64
2023-03-24T06:06:45.175Z,99343.83
2023-03-24T06:07:48.739Z,99337.47
2023-03-24T06:08:55.553Z,99339.72
2023-03-24T06:10:01.674Z,99342.80
2023-03-24T06:11:05.903Z,99344.31
2023-03-24T06:12:10.834Z,99337.94
2023-03-24T06:13:15.448Z,99338.13
2023-03-24T06:14:20.142Z,99340.11
2023-03-24T06:15:26.709Z,99348.72
2023-03-24T06:16:33.185Z,99354.77
2023-03-24T06:17:38.404Z,99352.41
2023-03-24T06:18:42.812Z,99348.85
2023-03-24T06:19:50.699Z,99354.70
2023-03-24T06:20:59.191Z,99349.89
2023-03-24T06:22:03.371Z,99351.84
2023-03-24T06:23:08.470Z,99348.05
2023-03-24T06:24:15.436Z,99345.07
2023-03-24T06:25:22.012Z,99346.29
2023-03-24T06:26:26.495Z,99343.14
2023-03-24T06:27:30.889Z,99342.48
2023-03-24T06:28:34.615Z,99340.52
2023-03-24T06:29:40.909Z,99340.61
2023-03-24T06:30:46.068Z,99341.17
2023-03-24T06:31:50.540Z,99340.63
2023-03-24T06:32:56.323Z,99347.53
2023-03-24T06:34:00.210Z,99349.39
2023-03-24T06:35:03.682Z,99357.75
2023-03-24T06:36:13.898Z,99357.75
2023-03-24T06:37:18.279Z,99348.54
2023-03-24T06:38:22.738Z,99346.75
2023-03-24T06:39:25.906Z,99347.31
2023-03-24T06:40:28.913Z,99341.53
2023-03-24T06:41:34.046Z,99345.63
2023-03-24T06:42:37.114Z,99339.13
2023-03-24T06:43:39.532Z,99338.95
2023-03-24T06:44:41.879Z,99337.64
2023-03-24T06:45:45.733Z,99344.64
2023-03-24T06:46:50.989Z,99339.69
2023-03-24T06:47:57.743Z,99341.38
2023-03-24T06:49:00.823Z,99336.32
2023-03-24T06:50:04.939Z,99341.83
2023-03-24T06:51:08.592Z,99335.59
2023-03-24T06:52:12.287Z,99337.09
2023-03-24T06:53:16.429Z,99335.80
2023-03-24T06:54:18.640Z,99332.34
2023-03-24T06:55:21.652Z,99334.67
2023-03-24T06:56:24.408Z,99338.03
2023-03-24T06:57:30.057Z,99340.38
2023-03-24T06:58:40.280Z,99339.52
2023-03-24T06:59:45.691Z,99336.91
2023-03-24T07:00:49.817Z,99341.75
2023-03-24T07:01:54.923Z,99342.61
2023-03-24T07:03:03.426Z,99343.70
2023-03-24T07:04:06.753Z,99351.81
2023-03-24T07:05:14.059Z,99351.81
2023-03-24T07:06:20.059Z,99353.49
2023-03-24T07:08:08.322Z,99349.13
2023-03-24T07:08:38.584Z,99349.95
2023-03-24T07:09:39.092Z,99355.17
2023-03-24T07:10:41.962Z,99352.19
2023-03-24T07:11:45.350Z,99357.03
2023-03-24T07:12:48.123Z,99358.16
2023-03-24T07:13:51.866Z,99354.23
2023-03-24T07:14:55.474Z,99362.06
2023-03-24T07:15:57.743Z,99358.14
2023-03-24T07:17:01.415Z,99358.05
2023-03-24T07:18:06.192Z,99353.58
2023-03-24T07:19:13.359Z,99354.06
2023-03-24T07:20:17.189Z,99350.16
2023-03-24T07:21:21.803Z,99352.56
2023-03-24T07:22:25.456Z,99351.16
2023-03-24T07:24:48.081Z,99344.47
2023-03-24T07:25:55.591Z,99350.16
2023-03-24T07:27:18.476Z,99352.67
2023-03-24T07:28:21.972Z,99350.33
2023-03-24T07:29:25.238Z,99350.33
2023-03-24T07:30:40.956Z,99348.48
2023-03-24T07:31:44.185Z,99345.11
2023-03-24T07:32:48.669Z,99361.97
2023-03-24T07:33:53.589Z,99359.55
2023-03-24T07:34:57.730Z,99364.88
2023-03-24T07:36:00.084Z,99361.14
2023-03-24T07:37:02.854Z,99366.16
2023-03-24T07:38:06.248Z,99362.45
2023-03-24T07:39:08.834Z,99358.55
2023-03-24T07:40:14.364Z,99354.08
2023-03-24T07:41:17.743Z,99354.15
2023-03-24T07:42:21.967Z,99362.08
2023-03-24T07:43:44.767Z,99352.95
2023-03-24T07:46:09.603Z,99357.80
2023-03-24T07:47:12.693Z,99359.48
2023-03-24T07:48:17.549Z,99357.80
2023-03-24T07:49:20.355Z,99348.17
2023-03-24T07:50:40.332Z,99353.87
2023-03-24T07:51:45.367Z,99355.18
2023-03-24T07:52:52.904Z,99356.31
2023-03-24T07:53:56.115Z,99353.70
2023-03-24T07:55:01.639Z,99351.16
2023-03-24T07:56:09.116Z,99348.48
2023-03-24T07:57:13.378Z,99362.09
2023-03-24T07:58:16.401Z,99352.56
2023-03-24T07:59:21.784Z,99357.69
2023-03-24T08:00:24.467Z,99355.35
2023-03-24T08:01:29.278Z,99355.35
2023-03-24T08:02:33.455Z,99357.14
2023-03-24T08:03:42.174Z,99365.24
2023-03-24T08:04:52.904Z,99363.56
2023-03-24T08:06:05.309Z,99358.34
2023-03-24T08:07:11.310Z,99360.20
2023-03-24T08:08:14.345Z,99359.84
2023-03-24T08:09:17.326Z,99354.23
2023-03-24T08:10:23.499Z,99355.53
2023-03-24T08:11:25.997Z,99363.53
2023-03-24T08:12:28.375Z,99361.84
2023-03-24T08:13:31.895Z,99360.16
2023-03-24T08:14:34.540Z,99352.87
2023-03-24T08:15:37.354Z,99349.92
2023-03-24T08:16:42.133Z,99359.34
2023-03-24T08:17:46.171Z,99358.09
2023-03-24T08:18:51.261Z,99354.55
2023-03-24T08:20:00.127Z,99350.75
2023-03-24T08:21:00.811Z,99352.54
2023-03-24T08:22:03.492Z,99348.78
2023-03-24T08:23:06.017Z,99352.54
2023-03-24T08:24:08.275Z,99352.54
2023-03-24T08:25:12.726Z,99347.85
2023-03-24T08:26:15.198Z,99341.30
2023-03-24T08:27:17.377Z,99348.60
2023-03-24T08:28:20.028Z,99343.55
2023-03-24T08:29:22.339Z,99351.75
2023-03-24T08:30:26.680Z,99345.67
2023-03-24T08:31:35.013Z,99346.31
2023-03-24T08:32:37.689Z,99340.32
2023-03-24T08:33:41.750Z,99341.03
2023-03-24T08:34:44.197Z,99341.20
2023-03-24T08:35:47.667Z,99339.52
2023-03-24T08:36:50.721Z,99347.25
2023-03-24T08:37:52.998Z,99343.30
2023-03-24T08:38:56.332Z,99346.55
2023-03-24T08:40:01.174Z,99347.83
2023-03-24T08:41:06.118Z,99347.08
2023-03-24T08:42:08.541Z,99341.44
2023-03-24T08:43:14.051Z,99351.19
2023-03-24T08:44:16.929Z,99347.83
2023-03-24T08:45:22.945Z,99338.30
2023-03-24T08:46:25.997Z,99342.00
2023-03-24T08:47:29.669Z,99333.52
2023-03-24T08:48:32.434Z,99334.75
2023-03-24T08:49:34.868Z,99335.38
2023-03-24T08:50:41.137Z,99339.80
2023-03-24T08:51:44.403Z,99336.66
2023-03-24T08:52:49.981Z,99340.02
2023-03-24T08:53:53.333Z,99343.38
2023-03-24T08:54:56.005Z,99351.55
2023-03-24T08:55:58.441Z,99345.99
2023-03-24T08:57:00.827Z,99350.37
2023-03-24T08:58:04.356Z,99349.84
2023-03-24T08:59:06.932Z,99345.44
2023-03-24T09:00:12.635Z,99337.81
2023-03-24T09:01:15.492Z,99338.25
2023-03-24T09:02:17.924Z,99333.13
2023-03-24T09:03:21.591Z,99339.92
2023-03-24T09:04:24.798Z,99344.33
2023-03-24T09:05:43.564Z,99331.02
2023-03-24T09:06:32.243Z,99332.39
2023-03-24T09:07:34.918Z,99339.40
2023-03-24T09:08:37.654Z,99330.61
2023-03-24T09:09:40.195Z,99338.34
2023-03-24T09:10:46.251Z,99328.11
2023-03-24T09:11:48.895Z,99327.25
2023-03-24T09:12:52.212Z,99344.83
2023-03-24T09:13:54.731Z,99339.91
2023-03-24T09:14:56.740Z,99328.68
2023-03-24T09:16:02.957Z,99338.08
2023-03-24T09:17:06.510Z,99330.78
2023-03-24T09:18:09.257Z,99335.64
2023-03-24T09:19:11.702Z,99327.66
2023-03-24T09:20:15.338Z,99330.80
2023-03-24T09:21:18.158Z,99322.73
2023-03-24T09:22:20.540Z,99327.03
2023-03-24T09:23:23.158Z,99326.25
2023-03-24T09:24:25.686Z,99331.92
2023-03-24T09:25:27.953Z,99343.77
2023-03-24T09:26:30.518Z,99339.20
2023-03-24T09:27:33.067Z,99333.97
2023-03-24T09:28:35.529Z,99326.18
2023-03-24T09:29:38.119Z,99324.06
2023-03-24T09:30:41.773Z,99329.72
2023-03-24T09:31:44.244Z,99330.10
2023-03-24T09:32:47.118Z,99332.96
2023-03-24T09:33:50.559Z,99332.66
2023-03-24T09:34:53.527Z,99328.02
2023-03-24T09:35:59.649Z,99330.52
2023-03-24T09:37:01.667Z,99329.08
2023-03-24T09:38:05.416Z,99331.75
2023-03-24T09:39:09.405Z,99331.10
2023-03-24T09:40:28.425Z,99325.86
2023-03-24T09:41:33.219Z,99332.48
2023-03-24T09:42:39.251Z,99341.38
2023-03-24T09:43:46.405Z,99332.58
2023-03-24T09:44:53.077Z,99321.83
2023-03-24T09:45:59.185Z,99325.04
2023-03-24T09:47:20.161Z,99323.33
2023-03-24T09:48:38.773Z,99324.34
2023-03-24T09:49:43.783Z,99334.14
2023-03-24T09:51:13.895Z,99329.59
2023-03-24T09:52:19.725Z,99322.63
2023-03-24T09:53:34.322Z,99322.54
2023-03-24T09:54:49.380Z,99323.16
2023-03-24T09:55:52.473Z,99325.45
2023-03-24T09:56:57.020Z,99324.18
2023-03-24T09:58:03.059Z,99328.40
2023-03-24T09:59:17.640Z,99318.53
2023-03-24T10:00:27.539Z,99322.27
2023-03-24T10:01:30.271Z,99320.55
2023-03-24T10:02:32.756Z,99320.62
2023-03-24T10:03:36.265Z,99319.38
2023-03-24T10:04:38.877Z,99317.08
2023-03-24T10:06:01.441Z,99322.27
2023-03-24T10:07:10.329Z,99318.15
2023-03-24T10:08:19.707Z,99322.87
2023-03-24T10:09:28.323Z,99321.00
2023-03-24T10:10:37.067Z,99317.57
2023-03-24T10:11:45.797Z,99318.91
2023-03-24T10:12:49.783Z,99311.03
2023-03-24T10:13:55.917Z,99324.16
2023-03-24T10:15:37.378Z,99312.72
2023-03-24T10:16:46.827Z,99309.73
2023-03-24T10:17:57.240Z,99322.05
2023-03-24T10:19:22.420Z,99324.30
2023-03-24T10:20:37.415Z,99312.11
2023-03-24T10:21:43.478Z,99315.08
2023-03-24T10:23:05.812Z,99297.65
2023-03-24T10:24:18.114Z,99309.70
2023-03-24T10:25:24.116Z,99314.34
2023-03-24T10:26:49.856Z,99305.52
2023-03-24T10:28:02.354Z,99305.19
2023-03-24T10:29:23.531Z,99309.48
2023-03-24T10:30:36.461Z,99311.98
2023-03-24T10:31:41.084Z,99304.36
2023-03-24T10:32:45.340Z,99299.84
2023-03-24T10:33:47.786Z,99301.04
2023-03-24T10:34:57.370Z,99301.50
2023-03-24T10:36:12.078Z,99300.56
2023-03-24T10:37:15.922Z,99296.03
2023-03-24T10:38:20.830Z,99293.52
2023-03-24T10:39:28.620Z,99300.34
2023-03-24T10:40:33.713Z,99292.08
2023-03-24T10:41:40.149Z,99300.45
2023-03-24T10:42:44.793Z,99291.98
2023-03-24T10:43:49.491Z,99290.06
2023-03-24T10:44:52.571Z,99299.86
2023-03-24T10:45:57.945Z,99290.88
2023-03-24T10:47:03.258Z,99292.22
2023-03-24T10:48:09.658Z,99291.01
2023-03-24T10:49:15.737Z,99298.78
2023-03-24T10:50:18.503Z,99289.35
2023-03-24T10:51:27.386Z,99289.09
2023-03-24T10:52:34.039Z,99283.46
2023-03-24T10:53:37.042Z,99278.11
2023-03-24T10:54:44.036Z,99275.48
2023-03-24T10:55:48.987Z,99282.78
2023-03-24T10:57:04.825Z,99283.00
2023-03-24T10:58:22.979Z,99277.75
2023-03-24T10:59:31.624Z,99285.86
2023-03-24T11:00:39.584Z,99281.46
2023-03-24T11:01:41.933Z,99283.47
2023-03-24T11:02:47.901Z,99278.11
2023-03-24T11:03:52.312Z,99291.25
2023-03-24T11:04:58.119Z,99289.58
2023-03-24T11:06:05.596Z,99289.58
2023-03-24T11:07:14.260Z,99282.41
2023-03-24T11:08:20.260Z,99279.55
2023-03-24T11:09:23.766Z,99275.98
2023-03-24T11:10:27.261Z,99276.70
2023-03-24T11:11:31.890Z,99280.27
2023-03-24T11:12:38.327Z,99267.86
2023-03-24T11:13:40.595Z,99266.28
2023-03-24T11:14:46.323Z,99266.18
2023-03-24T11:15:57.971Z,99273.82
2023-03-24T11:17:15.612Z,99279.09
2023-03-24T11:18:18.880Z,99274.06
2023-03-24T11:19:24.767Z,99275.50
2023-03-24T11:20:38.855Z,99268.83
2023-03-24T11:21:43.621Z,99272.27
2023-03-24T11:22:59.091Z,99275.25
2023-03-24T11:24:04.410Z,99265.60
2023-03-24T11:25:10.435Z,99268.23
2023-03-24T11:26:16.428Z,99268.57
2023-03-24T11:27:20.313Z,99263.58
2023-03-24T11:28:26.290Z,99263.91
2023-03-24T11:29:32.690Z,99268.34
2023-03-24T11:30:50.001Z,99263.42
2023-03-24T11:31:55.934Z,99263.78
2023-03-24T11:32:59.252Z,99257.09
2023-03-24T11:34:12.384Z,99255.78
2023-03-24T11:35:18.828Z,99257.19
2023-03-24T11:36:34.160Z,99247.77
2023-03-24T11:37:37.828Z,99259.00
2023-03-24T11:38:41.402Z,99255.68
2023-03-24T11:39:44.083Z,99250.62
2023-03-24T11:40:58.076Z,99253.92
2023-03-24T11:42:16.976Z,99252.38
2023-03-24T11:43:21.406Z,99247.27
2023-03-24T11:44:25.047Z,99257.54
2023-03-24T11:45:42.839Z,99241.38
2023-03-24T11:46:49.579Z,99243.98
2023-03-24T11:47:55.853Z,99239.75
2023-03-24T11:48:59.764Z,99244.27
2023-03-24T11:50:16.066Z,99239.70
2023-03-24T11:51:35.393Z,99233.23
2023-03-24T11:52:41.360Z,99235.73
2023-03-24T11:53:50.239Z,99235.29
2023-03-24T11:54:52.605Z,99225.98
2023-03-24T11:56:21.248Z,99231.08
2023-03-24T11:59:06.134Z,99220.84
2023-03-24T12:00:17.111Z,99223.76
2023-03-24T12:01:25.089Z,99224.77
2023-03-24T12:02:52.122Z,99222.27
2023-03-24T12:04:16.600Z,99228.63
2023-03-24T12:05:43.784Z,99228.35
2023-03-24T12:07:10.435Z,99239.07
2023-03-24T12:08:19.403Z,99223.62
2023-03-24T12:09:34.270Z,99228.78
2023-03-24T12:10:52.200Z,99218.72
2023-03-24T12:12:08.781Z,99227.34
2023-03-24T12:14:56.205Z,99216.89
2023-03-24T12:16:18.416Z,99221.81
2023-03-24T12:17:29.199Z,99218.97
2023-03-24T12:18:41.082Z,99211.31
2023-03-24T12:19:59.060Z,99225.02
2023-03-24T12:21:25.425Z,99209.36
2023-03-24T12:22:43.667Z,99215.45
2023-03-24T12:24:13.865Z,99222.95
2023-03-24T12:25:42.038Z,99209.36
2023-03-24T12:26:44.571Z,99204.97
2023-03-24T12:28:00.437Z,99214.42
2023-03-24T12:29:33.621Z,99210.72
2023-03-24T12:31:02.537Z,99202.67
2023-03-24T12:32:23.600Z,99210.28
2023-03-24T12:33:36.828Z,99199.78
2023-03-24T12:35:11.843Z,99213.97
2023-03-24T12:36:36.720Z,99199.38
2023-03-24T12:38:08.250Z,99201.20
2023-03-24T12:39:15.894Z,99204.80
2023-03-24T12:40:39.383Z,99198.97
2023-03-24T12:42:00.746Z,99207.02
2023-03-24T12:43:09.927Z,99204.23
2023-03-24T12:44:42.091Z,99211.88
2023-03-24T12:45:50.217Z,99203.63
2023-03-24T12:47:31.525Z,99193.14
2023-03-24T12:49:01.105Z,99191.20
2023-03-24T12:50:23.978Z,99197.14
2023-03-24T12:51:36.449Z,99190.03
2023-03-24T12:53:08.582Z,99190.55
2023-03-24T12:54:34.006Z,99184.86
2023-03-24T12:55:43.063Z,99189.72
2023-03-24T12:58:53.975Z,99179.09
2023-03-24T13:00:07.381Z,99188.91
2023-03-24T13:01:28.877Z,99192.10
2023-03-24T13:02:39.968Z,99182.78
2023-03-24T13:03:52.978Z,99179.20
2023-03-24T13:05:04.810Z,99170.90
2023-03-24T13:06:17.630Z,99179.25
2023-03-24T13:07:25.636Z,99174.50
2023-03-24T13:08:32.106Z,99174.50
2023-03-24T13:09:58.952Z,99173.16
2023-03-24T13:11:08.020Z,99169.27
2023-03-24T13:12:14.342Z,99171.48
2023-03-24T13:13:23.269Z,99164.64
2023-03-24T13:14:29.186Z,99164.31
2023-03-24T13:15:56.296Z,99165.94
2023-03-24T13:17:05.168Z,99166.29
2023-03-24T13:18:11.048Z,99168.84
2023-03-24T13:19:21.282Z,99161.47
2023-03-24T13:20:48.159Z,99164.78
2023-03-24T13:21:54.397Z,99157.80
2023-03-24T13:23:00.995Z,99164.23
2023-03-24T13:24:14.374Z,99155.57
2023-03-24T13:25:36.870Z,99161.40
2023-03-24T13:27:06.695Z,99156.66
2023-03-24T13:28:12.718Z,99159.65
2023-03-24T13:29:24.822Z,99159.95
2023-03-24T13:30:33.547Z,99158.56
2023-03-24T13:31:51.535Z,99153.28
2023-03-24T13:32:58.333Z,99164.19
2023-03-24T13:34:03.027Z,99152.02
2023-03-24T13:35:21.640Z,99153.39
2023-03-24T13:36:46.370Z,99156.70